Mora RC Data

Date Time Air Temperature Relative Humidity Dewpoint Windchill Heat Index Wind Speed Wind Dir. Rain Solar Radiation Soil Temperature
2m 2m 3m 3m 10cm
US/Mountain F % F F F MPH deg in MJ/m^2 F
max avg avg
2021-06-11 00:05:00 56.2 23.9 19.8 56.2 56.2 7.2 7.2 4.5 261.5 287.3 0.00 0.0000000 72.3
2021-06-11 00:10:00 56.3 25.2 21.0 56.3 56.3 4.9 6.3 4.8 280.9 279.7 0.00 0.0000000 72.2
2021-06-11 00:15:00 56.4 23.6 19.6 56.4 56.4 6.0 8.3 6.3 302.9 270.7 0.00 0.0000000 72.1
2021-06-11 00:20:00 57.1 23.4 20.0 57.1 57.1 6.0 9.2 6.0 234.4 260.3 0.00 0.0000000 71.9
2021-06-11 00:25:00 55.5 25.0 20.2 55.5 55.5 4.9 7.6 5.5 266.3 266.6 0.00 0.0000000 71.8
2021-06-11 00:30:00 54.7 26.7 21.1 54.7 54.7 3.3 7.2 4.8 318.3 255.1 0.00 0.0000000 71.7
2021-06-11 00:35:00 55.2 25.5 20.5 55.2 55.2 1.9 9.4 5.3 241.8 265.4 0.00 0.0000000 71.5
2021-06-11 00:40:00 55.8 23.5 19.0 55.8 55.8 7.6 7.8 5.8 278.6 274.6 0.00 0.0000000 71.4
2021-06-11 00:45:00 56.6 24.1 20.3 56.6 56.6 4.6 7.6 5.9 251.6 263.6 0.00 0.0000000 71.3
2021-06-11 00:50:00 55.6 24.9 20.2 55.6 55.6 4.6 6.2 4.3 289.8 251.7 0.00 0.0000000 71.1
2021-06-11 00:55:00 54.7 25.2 19.8 54.7 54.7 3.7 6.2 4.0 237.7 249.6 0.00 0.0000000 71.0
2021-06-11 01:00:00 55.0 24.9 19.7 55.0 55.0 4.6 5.8 4.2 236.4 222.6 0.00 0.0000000 70.9
2021-06-11 01:05:00 55.2 25.2 20.1 55.2 55.2 4.4 6.2 3.5 311.7 244.5 0.00 0.0000000 70.8
2021-06-11 01:10:00 55.2 25.0 19.9 55.2 55.2 2.8 5.8 3.1 258.8 276.3 0.00 0.0000000 70.7
2021-06-11 01:15:00 54.6 26.5 20.7 54.6 54.6 4.6 4.7 2.6 236.1 251.4 0.00 0.0000000 70.6
2021-06-11 01:20:00 54.9 25.0 19.6 54.9 54.9 3.5 6.2 3.3 202.5 248.2 0.00 0.0000000 70.4
2021-06-11 01:25:00 55.3 24.7 19.8 55.3 55.3 5.1 6.5 3.7 242.8 255.2 0.00 0.0000000 70.3
2021-06-11 01:30:00 55.7 24.5 19.9 55.7 55.7 2.4 5.5 3.0 310.2 267.3 0.00 0.0000000 70.2
2021-06-11 01:35:00 54.1 30.1 23.3 54.1 54.1 0.0 2.4 1.1 234.9 62.5 0.00 0.0000000 70.1
2021-06-11 01:40:00 54.4 25.1 19.4 54.4 54.4 3.8 4.6 2.7 299.9 301.8 0.00 0.0000000 70.0
2021-06-11 01:45:00 56.0 23.4 19.0 56.0 56.0 4.6 7.6 4.6 237.8 272.8 0.00 0.0000000 69.9
2021-06-11 01:50:00 56.4 23.6 19.6 56.4 56.4 2.2 7.4 4.4 226.6 252.8 0.00 0.0000000 69.8
2021-06-11 01:55:00 56.1 23.8 19.5 56.1 56.1 3.5 8.5 4.2 229.7 257.8 0.00 0.0000000 69.6
2021-06-11 02:00:00 56.7 22.4 18.6 56.7 56.7 4.0 7.6 4.9 243.8 258.8 0.00 0.0000000 69.5
2021-06-11 02:05:00 57.3 21.5 18.3 57.3 57.3 3.3 6.7 3.9 266.1 262.0 0.00 0.0000000 69.4
2021-06-11 02:10:00 58.4 19.4 16.7 58.4 58.4 5.1 7.2 4.6 262.7 258.8 0.00 0.0000000 69.4
2021-06-11 02:15:00 59.8 18.8 17.2 59.8 59.8 5.1 7.6 4.5 251.6 241.2 0.00 0.0000000 69.2
2021-06-11 02:20:00 62.2 16.9 16.6 62.2 62.2 4.9 9.2 3.7 176.4 239.0 0.00 0.0000579 69.2
2021-06-11 02:25:00 63.1 15.1 14.9 63.1 63.1 2.8 7.4 4.6 241.9 247.4 0.00 0.0000000 69.0
2021-06-11 02:30:00 64.7 15.3 16.5 64.7 64.7 2.1 10.6 4.7 246.6 223.2 0.00 0.0000158 69.0
2021-06-11 02:35:00 64.8 14.1 14.6 64.8 64.8 3.1 7.1 3.8 204.1 205.6 0.00 0.0000000 68.9
2021-06-11 02:40:00 65.7 13.6 14.4 65.7 65.7 2.6 4.2 3.0 178.3 236.9 0.00 0.0000000 68.8
2021-06-11 02:45:00 68.2 11.3 12.3 68.2 68.2 3.8 9.2 4.8 33.6 43.5 0.00 0.0000041 68.7
2021-06-11 02:50:00 66.6 13.2 14.6 66.6 66.6 0.0 8.1 4.4 74.5 201.8 0.00 0.0000000 68.6
2021-06-11 02:55:00 66.1 14.1 15.7 66.1 66.1 2.8 4.9 2.1 121.2 51.6 0.00 0.0000000 68.6
2021-06-11 03:00:00 64.9 13.7 13.9 64.9 64.9 7.1 7.1 2.3 113.8 79.9 0.00 0.0000000 68.5
2021-06-11 03:05:00 64.0 14.8 15.0 64.0 64.0 2.4 8.7 4.6 210.8 172.3 0.00 0.0000000 68.4
2021-06-11 03:10:00 62.2 16.6 16.2 62.2 62.2 2.6 4.7 2.4 168.0 224.6 0.00 0.0000000 68.3
2021-06-11 03:15:00 63.3 13.6 12.6 63.3 63.3 5.6 6.7 3.4 299.5 267.3 0.00 0.0000000 68.2
2021-06-11 03:20:00 66.6 11.7 11.8 66.6 66.6 8.5 8.5 4.6 302.3 333.2 0.00 0.0000000 68.2
2021-06-11 03:25:00 68.6 11.6 13.1 68.6 68.6 4.6 9.9 6.2 316.9 294.3 0.00 0.0000000 68.1
2021-06-11 03:30:00 69.0 10.4 11.0 69.0 69.0 4.2 9.0 4.2 276.1 281.3 0.00 0.0000000 68.0
2021-06-11 03:35:00 68.7 11.7 13.3 68.7 68.7 2.2 9.4 4.7 8.0 290.2 0.00 0.0000000 68.0
2021-06-11 03:40:00 67.7 11.4 12.1 67.7 67.7 6.2 8.7 4.9 284.3 285.8 0.00 0.0000000 67.9
2021-06-11 03:45:00 69.3 9.1 8.3 69.3 69.3 6.2 7.2 4.7 307.4 320.2 0.00 0.0000000 67.8
2021-06-11 03:50:00 70.8 8.5 7.9 70.8 70.8 6.7 12.1 8.3 329.5 310.4 0.00 0.0000000 67.8
2021-06-11 03:55:00 71.1 8.2 7.3 71.1 71.1 9.7 15.6 9.9 314.9 315.4 0.00 0.0000000 67.7
2021-06-11 04:00:00 71.0 8.3 7.5 71.0 71.0 10.8 13.1 8.3 310.1 305.4 0.00 0.0000000 67.6
2021-06-11 04:05:00 70.2 8.9 8.4 70.2 70.2 4.4 9.7 7.0 240.8 278.7 0.00 0.0000000 67.6
2021-06-11 04:10:00 70.2 8.5 7.4 70.2 70.2 6.9 11.7 7.4 280.6 293.2 0.00 0.0000000 67.6
2021-06-11 04:15:00 70.2 9.2 9.3 70.2 70.2 7.1 11.5 6.9 295.9 293.8 0.00 0.0000000 67.5
2021-06-11 04:20:00 70.6 9.2 9.5 70.6 70.6 3.1 12.4 5.9 190.7 284.1 0.00 0.0000000 67.5
2021-06-11 04:25:00 69.9 8.5 7.3 69.9 69.9 10.8 13.9 7.4 317.7 279.1 0.00 0.0000000 67.4
2021-06-11 04:30:00 69.5 9.8 10.0 69.5 69.5 5.8 11.7 7.7 248.1 282.9 0.00 0.0000000 67.4
2021-06-11 04:35:00 69.9 9.1 8.6 69.9 69.9 4.4 8.1 5.5 67.5 318.7 0.00 0.0000000 67.3
2021-06-11 04:40:00 70.6 9.1 9.2 70.6 70.6 12.1 13.1 7.1 258.4 287.8 0.00 0.0000000 67.3
2021-06-11 04:45:00 69.8 8.8 7.9 69.8 69.8 3.8 13.1 7.4 328.1 262.8 0.00 0.0000000 67.2
2021-06-11 04:50:00 70.8 8.8 8.5 70.8 70.8 10.3 10.6 7.2 289.7 308.0 0.00 0.0000000 67.2
2021-06-11 04:55:00 70.9 8.9 8.9 70.9 70.9 6.0 10.6 7.5 300.5 312.6 0.00 0.0000000 67.2
2021-06-11 05:00:00 71.1 8.6 8.2 71.1 71.1 4.2 11.2 7.1 4.9 316.1 0.00 0.0000000 67.2
2021-06-11 05:05:00 70.6 8.6 7.9 70.6 70.6 4.9 8.8 4.5 242.1 303.9 0.00 0.0000000 67.1
2021-06-11 05:10:00 70.1 8.8 8.1 70.1 70.1 5.1 9.7 4.7 55.4 294.9 0.00 0.0000000 67.1
2021-06-11 05:15:00 69.5 9.3 8.9 69.5 69.5 3.7 5.5 2.7 307.2 202.3 0.00 0.0000000 67.1
2021-06-11 05:20:00 69.2 9.4 8.8 69.2 69.2 3.8 6.9 4.0 225.7 327.1 0.00 0.0000000 67.0
2021-06-11 05:25:00 66.6 11.6 11.7 66.6 66.6 3.0 7.2 3.4 213.3 252.0 0.00 0.0000000 67.0
2021-06-11 05:30:00 66.6 9.9 8.1 66.6 66.6 9.7 10.6 6.7 274.6 269.5 0.00 0.0000000 66.9
2021-06-11 05:35:00 68.2 10.0 9.5 68.2 68.2 7.1 10.3 6.1 267.1 279.2 0.00 0.0000000 66.9
2021-06-11 05:40:00 69.5 10.1 10.7 69.5 69.5 4.6 13.9 7.9 215.2 297.9 0.00 0.0000000 66.9
2021-06-11 05:45:00 68.1 10.7 11.0 68.1 68.1 6.0 9.0 6.1 299.0 295.5 0.00 0.0000110 66.8
2021-06-11 05:50:00 67.1 11.4 11.6 67.1 67.1 6.5 8.5 6.5 270.4 270.4 0.00 0.0000311 66.8
2021-06-11 05:55:00 69.0 10.5 11.2 69.0 69.0 6.0 10.6 7.0 229.1 292.3 0.00 0.0010494 66.7
2021-06-11 06:00:00 67.4 12.8 14.4 67.4 67.4 5.6 10.8 5.7 241.1 248.8 0.00 0.0015942 66.7
2021-06-11 06:05:00 68.7 10.2 10.4 68.7 68.7 6.9 13.3 6.9 256.9 284.3 0.00 0.0042110 66.7
2021-06-11 06:10:00 69.8 9.9 10.6 69.8 69.8 13.5 13.7 9.3 305.8 308.1 0.00 0.0047497 66.6
2021-06-11 06:15:00 70.0 9.8 10.5 70.0 70.0 11.9 16.5 10.4 317.5 316.6 0.00 0.0052535 66.6
2021-06-11 06:20:00 69.6 10.3 11.3 69.6 69.6 13.1 14.2 8.7 317.5 307.8 0.00 0.0059610 66.6
2021-06-11 06:25:00 69.7 10.7 12.3 69.7 69.7 7.2 14.6 10.2 25.4 326.2 0.00 0.0066324 66.5
2021-06-11 06:30:00 69.5 10.8 12.2 69.5 69.5 3.5 13.9 8.8 290.6 315.3 0.00 0.0248404 66.5
2021-06-11 06:35:00 69.9 10.2 11.2 69.9 69.9 6.7 11.2 4.7 236.0 292.8 0.00 0.0360205 66.4
2021-06-11 06:40:00 69.8 11.0 12.8 69.8 69.8 6.3 9.9 4.8 18.0 274.2 0.00 0.0399355 66.4
2021-06-11 06:45:00 70.1 10.4 12.0 70.1 70.1 10.3 11.3 6.3 307.2 351.0 0.00 0.0444953 66.4
2021-06-11 06:50:00 69.9 11.7 14.3 69.9 69.9 4.0 13.3 7.7 297.0 316.4 0.00 0.0487395 66.4
2021-06-11 06:55:00 69.7 10.5 11.8 69.7 69.7 8.8 8.8 5.0 320.4 282.9 0.00 0.0526841 66.4
2021-06-11 07:00:00 70.4 11.2 13.8 70.4 70.4 4.9 10.8 7.0 292.7 303.7 0.00 0.0575992 66.3
2021-06-11 07:05:00 70.3 11.0 13.2 70.3 70.3 6.7 11.7 7.7 312.4 307.5 0.00 0.0618503 66.3
2021-06-11 07:10:00 70.3 11.2 13.6 70.3 70.3 7.6 11.3 7.8 299.3 299.1 0.00 0.0668234 66.3
2021-06-11 07:15:00 69.6 12.7 16.1 69.6 69.6 7.4 11.9 7.7 293.6 306.0 0.00 0.0714599 66.3
2021-06-11 07:20:00 69.7 12.3 15.4 69.7 69.7 8.1 8.1 6.2 341.9 313.2 0.00 0.0765855 66.3
2021-06-11 07:25:00 69.7 11.6 14.0 69.7 69.7 5.5 11.0 7.5 310.9 300.6 0.00 0.0824992 66.2
2021-06-11 07:30:00 69.7 14.2 18.7 69.7 69.7 4.9 11.9 7.3 300.0 295.3 0.00 0.0877441 66.2
2021-06-11 07:35:00 70.6 11.9 15.2 70.6 70.6 6.2 13.5 6.7 276.5 302.5 0.00 0.0930819 66.2
2021-06-11 07:40:00 70.7 10.8 13.3 70.7 70.7 5.6 11.0 6.9 322.9 301.6 0.00 0.0988081 66.2
2021-06-11 07:45:00 71.2 10.0 11.8 71.2 71.2 10.5 10.5 6.1 321.2 302.5 0.00 0.1040815 66.2
2021-06-11 07:50:00 71.5 11.4 15.1 71.5 71.5 4.6 9.0 5.8 2.5 313.9 0.00 0.1091666 66.3
2021-06-11 07:55:00 71.8 10.6 13.6 71.8 71.8 6.5 9.4 6.2 346.9 309.6 0.00 0.1144142 66.3
2021-06-11 08:00:00 71.9 11.5 15.4 71.9 71.9 7.2 8.7 5.8 306.7 300.9 0.00 0.1200055 66.3
2021-06-11 08:05:00 72.0 10.4 13.3 72.0 72.0 9.9 9.9 6.0 312.4 308.5 0.00 0.1251487 66.4
2021-06-11 08:10:00 72.2 11.6 15.9 72.2 72.2 6.2 9.9 6.9 306.9 303.7 0.00 0.1303176 66.4
2021-06-11 08:15:00 72.5 11.6 16.3 72.5 72.5 4.7 8.3 5.2 263.6 305.4 0.00 0.1358671 66.4
2021-06-11 08:20:00 72.9 11.4 16.1 72.9 72.9 3.5 6.2 4.7 332.3 309.7 0.00 0.1408295 66.5
2021-06-11 08:25:00 72.9 10.5 14.1 72.9 72.9 7.1 11.9 8.0 333.2 314.7 0.00 0.1459587 66.6
2021-06-11 08:30:00 73.2 10.3 14.1 73.2 73.2 5.5 9.6 7.0 341.3 322.9 0.00 0.1514312 66.6
2021-06-11 08:35:00 73.9 10.9 15.8 73.9 73.9 5.3 9.2 5.8 346.7 329.5 0.00 0.1570123 66.7
2021-06-11 08:40:00 74.2 11.3 16.9 74.2 74.2 3.0 7.1 4.4 324.3 311.1 0.00 0.1620013 66.8
2021-06-11 08:45:00 74.6 11.0 16.5 74.6 74.6 4.6 9.6 5.3 322.5 318.2 0.00 0.1673598 66.8
2021-06-11 08:50:00 74.6 11.0 16.6 74.6 74.6 4.2 9.2 5.4 317.6 316.1 0.00 0.1720982 66.9
2021-06-11 08:55:00 74.7 12.5 19.7 74.7 74.7 3.8 8.8 5.6 297.3 319.1 0.00 0.1774177 67.0
2021-06-11 09:00:00 75.3 11.2 17.4 75.3 75.3 4.2 8.5 4.8 308.5 301.1 0.00 0.1822530 67.2
2021-06-11 09:05:00 75.7 11.8 19.0 75.7 75.7 4.7 5.8 4.0 285.0 301.6 0.00 0.1870612 67.3
2021-06-11 09:10:00 75.7 9.5 14.1 75.7 75.7 3.3 8.1 5.1 40.7 325.2 0.00 0.1920931 67.4
2021-06-11 09:15:00 76.9 12.1 20.6 76.9 76.9 1.9 4.6 2.6 33.6 12.4 0.00 0.1971206 67.6
2021-06-11 09:20:00 77.6 9.3 15.0 77.6 77.6 3.1 3.3 1.9 85.2 219.3 0.00 0.2017433 67.7
2021-06-11 09:25:00 78.5 8.5 13.5 78.5 78.5 3.8 4.2 2.2 307.9 56.3 0.00 0.2058565 67.9
2021-06-11 09:30:00 77.7 9.1 14.6 77.7 77.7 3.8 5.6 2.8 321.8 285.3 0.00 0.2104710 68.1
2021-06-11 09:35:00 77.5 8.0 11.6 77.5 77.5 2.6 4.4 2.5 321.8 325.8 0.00 0.2154195 68.3
2021-06-11 09:40:00 78.3 9.2 15.4 78.3 78.3 3.5 4.2 1.7 136.1 330.3 0.00 0.2200221 68.5
2021-06-11 09:45:00 78.5 9.6 16.5 78.5 78.5 3.3 6.7 4.0 103.3 116.2 0.00 0.2238368 68.7
2021-06-11 09:50:00 78.5 13.5 24.5 78.5 78.5 5.3 7.1 4.6 154.4 111.9 0.00 0.2285126 68.9
2021-06-11 09:55:00 78.4 12.1 21.8 78.4 78.4 3.5 7.6 5.6 143.6 119.0 0.00 0.2332556 69.1
2021-06-11 10:00:00 78.7 9.4 16.1 78.7 78.7 3.0 6.5 4.8 114.1 112.9 0.00 0.2383941 69.4
2021-06-11 10:05:00 78.8 9.5 16.5 78.8 78.8 4.2 7.6 4.9 145.8 120.7 0.00 0.2426596 69.6
2021-06-11 10:10:00 79.4 11.8 21.9 79.4 79.4 3.3 5.5 4.0 98.9 109.4 0.00 0.2473342 69.9
2021-06-11 10:15:00 80.0 7.7 12.6 80.0 80.0 5.1 5.1 3.1 126.8 106.5 0.00 0.2512721 70.1
2021-06-11 10:20:00 80.2 9.1 16.4 80.2 80.2 4.2 4.7 3.4 72.1 110.1 0.00 0.2546206 70.4
2021-06-11 10:25:00 79.4 8.3 13.7 79.4 79.4 3.3 4.9 2.8 95.1 62.2 0.00 0.2592258 70.6
2021-06-11 10:30:00 80.3 9.4 17.2 80.3 80.3 1.7 5.5 2.3 118.9 87.6 0.00 0.2631112 70.9
2021-06-11 10:35:00 80.6 10.0 19.1 80.6 80.6 5.3 5.8 3.4 78.0 81.6 0.00 0.2671942 71.2
2021-06-11 10:40:00 80.7 9.1 16.8 80.7 80.7 2.6 6.7 4.1 76.4 99.9 0.00 0.2705475 71.5
2021-06-11 10:45:00 80.6 8.4 14.8 80.6 80.6 3.1 5.6 3.5 105.9 69.5 0.00 0.2749143 71.8
2021-06-11 10:50:00 80.9 8.6 15.8 80.9 80.9 7.1 7.1 3.4 62.0 48.9 0.00 0.2775137 72.1
2021-06-11 10:55:00 81.5 9.0 17.3 81.5 81.5 3.8 5.1 3.5 50.2 70.3 0.00 0.2806941 72.4
2021-06-11 11:00:00 81.4 8.6 16.1 81.4 81.4 2.2 4.7 3.0 11.1 56.1 0.00 0.2826326 72.7
2021-06-11 11:05:00 81.7 8.5 16.0 81.7 81.7 2.8 6.2 4.3 63.5 81.9 0.00 0.2861229 73.0
2021-06-11 11:10:00 82.1 6.9 11.8 82.1 82.1 4.2 6.2 3.4 71.9 84.5 0.00 0.2893032 73.3
2021-06-11 11:15:00 82.2 10.5 21.3 82.2 82.2 2.1 5.3 3.1 133.0 73.9 0.00 0.2918311 73.7
2021-06-11 11:20:00 82.6 7.5 13.9 82.6 82.6 5.3 6.3 3.6 86.3 91.9 0.00 0.2947114 73.9
2021-06-11 11:25:00 82.1 8.1 15.3 82.1 82.1 2.4 6.0 3.8 110.3 82.6 0.00 0.2968068 74.3
2021-06-11 11:30:00 83.2 6.6 11.5 83.2 83.2 5.3 5.3 3.3 53.9 11.3 0.00 0.2990553 74.6
2021-06-11 11:35:00 83.2 6.9 12.4 83.2 83.2 2.6 5.6 3.9 114.0 72.0 0.00 0.3016578 74.9
2021-06-11 11:40:00 82.8 9.7 20.0 82.8 82.8 5.5 6.3 4.5 119.3 91.0 0.00 0.3040133 75.2
2021-06-11 11:45:00 83.2 8.5 17.1 83.2 83.2 3.5 7.2 4.8 98.4 94.5 0.00 0.3052239 75.6
2021-06-11 11:50:00 83.8 9.1 19.2 83.8 83.8 3.3 8.5 5.3 105.1 91.0 0.00 0.3076480 75.9
2021-06-11 11:55:00 83.6 8.5 17.5 83.6 83.6 6.2 11.7 7.7 105.3 95.1 0.00 0.3094138 76.2
2021-06-11 12:00:00 84.1 6.1 10.1 84.1 84.1 8.0 11.3 8.3 80.8 103.7 0.00 0.3116509 76.5
2021-06-11 12:05:00 83.7 7.5 14.6 83.7 83.7 9.4 12.6 7.6 88.8 91.3 0.00 0.3133919 76.9
2021-06-11 12:10:00 83.6 8.7 17.9 83.6 83.6 7.4 13.0 8.0 113.5 93.2 0.00 0.3138930 77.1
2021-06-11 12:15:00 84.0 9.5 20.3 84.0 84.0 5.8 10.5 8.0 155.2 106.7 0.00 0.3159788 77.5
2021-06-11 12:20:00 83.9 8.4 17.5 83.9 83.9 4.2 9.4 5.8 94.7 96.5 0.00 0.3173905 77.8
2021-06-11 12:25:00 84.7 8.8 19.1 84.7 84.7 9.4 10.6 5.8 110.1 86.9 0.00 0.3206276 78.1
2021-06-11 12:30:00 84.5 7.7 15.8 84.5 84.5 2.6 9.9 5.3 90.7 100.9 0.00 0.3218413 78.4
2021-06-11 12:35:00 84.8 6.7 12.8 84.8 84.8 7.1 9.6 5.1 140.8 85.1 0.00 0.2868069 78.7
2021-06-11 12:40:00 84.7 6.2 11.1 84.7 84.7 5.6 8.7 5.9 89.5 104.1 0.00 0.2454349 78.9
2021-06-11 12:45:00 84.6 10.0 22.0 84.6 84.6 11.7 11.7 5.7 117.8 99.8 0.00 0.2614266 79.1
2021-06-11 12:50:00 83.6 9.2 19.3 83.6 83.6 10.8 13.0 9.7 131.2 113.0 0.00 0.2749303 79.2
2021-06-11 12:55:00 83.8 10.9 23.4 83.8 83.8 8.5 11.5 9.4 144.9 121.9 0.00 0.3102038 79.4
2021-06-11 13:00:00 84.8 11.1 24.6 84.8 84.8 6.2 11.2 7.2 129.1 107.6 0.00 0.3021047 79.5
2021-06-11 13:05:00 83.8 8.2 16.9 83.8 83.8 7.2 12.4 8.0 86.1 87.7 0.00 0.2831108 79.6
2021-06-11 13:10:00 83.8 8.2 16.7 83.8 83.8 5.1 9.2 5.4 84.8 89.4 0.00 0.2725483 79.8
2021-06-11 13:15:00 84.3 10.8 23.7 84.3 84.3 4.6 8.8 5.6 111.6 95.8 0.00 0.2645058 79.9
2021-06-11 13:20:00 84.1 10.5 22.8 84.1 84.1 7.2 10.5 7.1 105.5 92.4 0.00 0.2883461 80.0
2021-06-11 13:25:00 84.4 7.8 16.0 84.4 84.4 12.1 14.7 8.5 93.6 94.9 0.00 0.3113207 80.1
2021-06-11 13:30:00 84.0 8.3 17.3 84.0 84.0 9.9 10.8 6.5 96.1 71.3 0.00 0.3136282 80.3
2021-06-11 13:35:00 83.8 8.4 17.3 83.8 83.8 7.4 8.7 6.6 69.6 81.2 0.00 0.3152749 80.4
2021-06-11 13:40:00 84.3 8.7 18.6 84.3 84.3 9.9 10.1 5.7 75.9 83.4 0.00 0.3057097 80.5
2021-06-11 13:45:00 85.4 9.4 21.2 85.4 85.4 4.7 11.3 7.0 81.2 117.3 0.00 0.3023735 80.7
2021-06-11 13:50:00 85.8 9.9 22.7 85.8 85.8 9.7 11.0 7.8 120.9 98.0 0.00 0.3056533 80.9
2021-06-11 13:55:00 85.2 9.6 21.6 85.2 85.2 6.2 10.1 7.1 67.2 115.6 0.00 0.2979915 81.1
2021-06-11 14:00:00 85.5 10.4 23.6 85.5 85.5 6.0 10.5 5.8 101.3 92.3 0.00 0.2983461 81.2
2021-06-11 14:05:00 85.9 9.7 22.4 85.9 85.9 6.7 8.8 6.0 120.0 97.2 0.00 0.2949515 81.4
2021-06-11 14:10:00 86.6 8.7 20.3 86.6 86.6 6.2 9.9 6.7 127.9 115.6 0.00 0.2817882 81.6
2021-06-11 14:15:00 85.9 7.6 16.7 85.9 85.9 4.9 10.3 6.3 62.4 108.8 0.00 0.2947162 81.8
2021-06-11 14:20:00 86.7 9.5 22.4 86.7 86.7 7.4 8.3 4.8 115.0 116.0 0.00 0.2988842 82.0
2021-06-11 14:25:00 85.8 8.0 17.7 85.8 85.8 4.0 13.7 9.1 196.4 118.3 0.00 0.2992249 82.2
2021-06-11 14:30:00 85.7 7.9 17.3 85.7 85.7 7.1 9.6 6.5 50.6 99.8 0.00 0.2981097 82.4
2021-06-11 14:35:00 85.4 11.8 26.5 85.4 85.4 6.9 9.6 6.8 104.6 97.1 0.00 0.2997165 82.6
2021-06-11 14:40:00 85.7 9.2 20.8 85.7 85.7 8.3 13.3 8.4 144.8 112.4 0.00 0.2977639 82.8
2021-06-11 14:45:00 86.2 9.6 22.2 86.2 86.2 8.3 13.7 8.5 111.8 116.8 0.00 0.2940115 83.0
2021-06-11 14:50:00 85.4 9.7 22.0 85.4 85.4 6.9 11.0 7.6 76.4 90.7 0.00 0.2916618 83.2
2021-06-11 14:55:00 86.9 9.2 21.8 86.9 86.9 7.2 9.9 7.0 101.3 96.2 0.00 0.2929207 83.4
2021-06-11 15:00:00 86.2 7.8 17.5 86.2 86.2 9.7 13.9 7.9 69.0 84.0 0.00 0.2901241 83.6
2021-06-11 15:05:00 85.3 11.5 26.0 85.3 85.3 4.6 11.3 5.7 70.2 80.0 0.00 0.2826476 83.7
2021-06-11 15:10:00 86.3 8.5 19.4 86.3 86.3 5.5 11.2 6.1 67.8 88.3 0.00 0.2656242 83.9
2021-06-11 15:15:00 86.3 9.8 22.8 86.3 86.3 7.6 9.4 5.3 115.5 77.3 0.00 0.2665103 84.1
2021-06-11 15:20:00 87.0 8.3 19.4 87.0 87.0 8.7 11.2 7.2 88.6 109.3 0.00 0.2826242 84.3
2021-06-11 15:25:00 87.2 10.0 24.0 87.2 87.2 10.5 10.5 7.0 117.9 95.3 0.00 0.2854471 84.4
2021-06-11 15:30:00 86.0 14.8 32.6 86.0 86.0 4.4 11.7 7.5 101.9 83.7 0.00 0.2655529 84.6
2021-06-11 15:35:00 85.2 12.2 27.3 85.2 85.2 8.7 14.2 8.8 80.4 90.9 0.00 0.2568785 84.7
2021-06-11 15:40:00 84.6 12.7 27.7 84.6 84.6 9.7 16.7 11.3 102.8 99.9 0.00 0.2500134 84.8
2021-06-11 15:45:00 84.2 12.3 26.7 84.2 84.2 14.2 15.3 10.7 102.5 94.5 0.00 0.2330009 85.0
2021-06-11 15:50:00 83.9 13.6 28.9 83.9 83.9 9.4 15.1 10.1 122.3 115.5 0.00 0.2586359 85.1
2021-06-11 15:55:00 84.6 12.7 27.7 84.6 84.6 7.2 13.5 9.8 116.4 115.3 0.00 0.2532966 85.2
2021-06-11 16:00:00 84.3 13.2 28.5 84.3 84.3 9.4 14.2 7.7 43.8 89.3 0.00 0.2479095 85.3
2021-06-11 16:05:00 83.8 14.2 29.8 83.8 83.8 6.7 11.5 7.5 70.2 80.1 0.00 0.2367308 85.4
2021-06-11 16:10:00 83.8 14.7 30.6 83.8 83.8 9.4 13.3 7.7 98.7 84.7 0.00 0.2291132 85.5
2021-06-11 16:15:00 83.3 15.2 31.1 83.3 83.3 6.5 12.6 7.8 113.6 84.6 0.00 0.2202017 85.6
2021-06-11 16:20:00 83.5 15.7 32.2 83.5 83.5 11.0 14.2 9.2 102.4 88.7 0.00 0.2175219 85.6
2021-06-11 16:25:00 82.1 15.0 29.9 82.1 82.1 7.1 15.3 9.8 88.4 85.5 0.00 0.2037485 85.7
2021-06-11 16:30:00 81.8 15.7 30.7 81.8 81.8 9.0 13.9 9.4 74.8 87.0 0.00 0.2118089 85.7
2021-06-11 16:35:00 82.5 15.8 31.5 82.5 82.5 6.7 11.7 7.8 84.6 82.4 0.00 0.2118230 85.8
2021-06-11 16:40:00 82.5 16.4 32.4 82.5 82.5 8.1 10.6 7.9 134.2 101.4 0.00 0.2076981 85.8
2021-06-11 16:45:00 82.6 15.2 30.5 82.6 82.6 9.7 12.6 9.7 118.4 97.6 0.00 0.2030036 85.8
2021-06-11 16:50:00 82.5 14.9 30.0 82.5 82.5 11.2 12.2 9.7 76.7 107.0 0.00 0.1966995 85.8
2021-06-11 16:55:00 82.5 15.8 31.4 82.5 82.5 11.3 13.5 8.4 146.3 109.6 0.00 0.1897782 85.8
2021-06-11 17:00:00 82.2 16.5 32.3 82.2 82.2 7.4 14.9 8.8 94.1 98.3 0.00 0.1834717 85.8
2021-06-11 17:05:00 81.8 16.0 31.3 81.8 81.8 8.7 13.3 10.0 64.8 99.3 0.00 0.1788545 85.8
2021-06-11 17:10:00 81.3 14.8 29.0 81.3 81.3 9.6 11.5 9.0 122.5 110.0 0.00 0.1751052 85.8
2021-06-11 17:15:00 81.4 16.4 31.5 81.4 81.4 8.3 11.0 7.4 101.2 105.3 0.00 0.1695782 85.8
2021-06-11 17:20:00 81.8 14.5 28.7 81.8 81.8 10.8 10.8 6.7 92.7 93.8 0.00 0.1649402 85.7
2021-06-11 17:25:00 81.3 14.8 29.0 81.3 81.3 9.7 12.1 8.4 105.0 92.0 0.00 0.1620860 85.7
2021-06-11 17:30:00 81.2 15.2 29.4 81.2 81.2 8.8 10.1 7.6 88.6 90.8 0.00 0.1578138 85.7
2021-06-11 17:35:00 81.5 17.9 33.8 81.5 81.5 3.3 10.3 6.6 95.1 99.2 0.00 0.1520814 85.6
2021-06-11 17:40:00 81.8 16.8 32.4 81.8 81.8 6.2 8.5 5.7 64.3 105.2 0.00 0.1437156 85.6
2021-06-11 17:45:00 81.2 16.0 30.7 81.2 81.2 6.9 9.6 6.9 109.7 115.2 0.00 0.1298645 85.5
2021-06-11 17:50:00 80.4 16.0 30.1 80.4 80.4 10.6 10.6 6.9 53.5 89.8 0.00 0.1193417 85.5
2021-06-11 17:55:00 80.2 16.3 30.3 80.2 80.2 5.1 9.0 5.9 88.5 90.7 0.00 0.1089196 85.4
2021-06-11 18:00:00 79.9 18.3 33.0 79.9 79.9 6.3 8.1 6.0 62.7 94.9 0.00 0.1040728 85.3
2021-06-11 18:05:00 79.7 18.4 32.9 79.7 79.7 4.4 8.1 6.0 96.8 91.3 0.00 0.0998748 85.3
2021-06-11 18:10:00 79.3 18.8 33.2 79.3 79.3 5.1 8.1 5.7 127.0 98.0 0.00 0.0967274 85.2
2021-06-11 18:15:00 79.1 18.2 32.3 79.1 79.1 5.6 7.2 5.2 75.0 95.0 0.00 0.0902937 85.1
2021-06-11 18:20:00 79.0 19.4 33.7 79.0 79.0 4.6 6.2 4.2 115.4 101.4 0.00 0.0815025 85.0
2021-06-11 18:25:00 78.6 19.9 34.1 78.6 78.6 4.2 6.2 4.8 100.3 91.6 0.00 0.0789130 84.9
2021-06-11 18:30:00 78.4 19.8 33.8 78.4 78.4 2.1 7.2 4.4 69.2 109.9 0.00 0.0775458 84.8
2021-06-11 18:35:00 78.4 20.4 34.5 78.4 78.4 3.7 6.5 4.0 90.4 107.7 0.00 0.0751841 84.6
2021-06-11 18:40:00 78.2 16.6 29.2 78.2 78.2 6.7 6.7 4.8 114.5 98.9 0.00 0.0719114 84.5
2021-06-11 18:45:00 78.4 18.9 32.7 78.4 78.4 3.5 6.9 3.3 110.3 98.9 0.00 0.0688326 84.4
2021-06-11 18:50:00 78.2 18.9 32.4 78.2 78.2 1.9 4.6 3.3 67.0 91.5 0.00 0.0637319 84.3
2021-06-11 18:55:00 78.0 18.5 31.7 78.0 78.0 3.5 9.0 3.5 93.8 79.3 0.00 0.0589509 84.1
2021-06-11 19:00:00 77.8 20.4 34.0 77.8 77.8 2.1 5.8 3.4 107.8 91.8 0.00 0.0529765 83.9
2021-06-11 19:05:00 77.1 20.0 32.9 77.1 77.1 5.3 5.3 3.3 99.4 101.1 0.00 0.0483014 83.8
2021-06-11 19:10:00 76.8 21.8 34.9 76.8 76.8 3.5 5.6 3.7 128.2 123.6 0.00 0.0424401 83.6
2021-06-11 19:15:00 75.3 20.8 32.5 75.3 75.3 5.1 6.9 5.0 130.3 108.9 0.00 0.0367421 83.5
2021-06-11 19:20:00 74.7 21.0 32.2 74.7 74.7 5.3 6.2 4.8 71.2 99.2 0.00 0.0363065 83.3
2021-06-11 19:25:00 74.5 20.4 31.3 74.5 74.5 5.6 6.5 4.5 92.4 100.8 0.00 0.0315986 83.2
2021-06-11 19:30:00 74.2 19.9 30.4 74.2 74.2 6.7 8.0 5.6 84.7 91.6 0.00 0.0277320 83.0
2021-06-11 19:35:00 73.7 20.5 30.7 73.7 73.7 5.1 6.0 4.6 51.2 92.2 0.00 0.0245466 82.8
2021-06-11 19:40:00 73.4 20.4 30.3 73.4 73.4 4.4 6.2 4.6 95.9 84.2 0.00 0.0209047 82.6
2021-06-11 19:45:00 73.0 21.1 30.9 73.0 73.0 3.5 6.0 4.5 114.2 84.2 0.00 0.0146123 82.4
2021-06-11 19:50:00 72.1 21.7 30.8 72.1 72.1 3.0 4.9 3.8 103.4 82.4 0.00 0.0056342 82.2
2021-06-11 19:55:00 71.3 22.4 31.0 71.3 71.3 3.7 4.9 3.3 86.3 91.5 0.00 0.0042612 82.0
2021-06-11 20:00:00 70.9 21.4 29.4 70.9 70.9 4.6 8.3 4.1 45.1 97.2 0.00 0.0032462 81.8
2021-06-11 20:05:00 70.6 21.3 29.0 70.6 70.6 3.7 4.4 3.2 74.1 82.4 0.00 0.0021264 81.6
2021-06-11 20:10:00 70.5 22.4 30.2 70.5 70.5 2.6 5.5 2.8 18.9 69.0 0.00 0.0013218 81.4
2021-06-11 20:15:00 69.3 24.9 31.8 69.3 69.3 2.2 2.2 1.2 31.3 35.2 0.00 0.0001483 81.2
2021-06-11 20:20:00 68.2 25.4 31.4 68.2 68.2 0.0 2.4 0.5 137.0 41.2 0.00 0.0000007 80.9
2021-06-11 20:25:00 67.4 26.9 32.1 67.4 67.4 0.0 0.8 0.0 2.1 28.4 0.00 0.0000000 80.7
2021-06-11 20:30:00 66.4 28.1 32.4 66.4 66.4 0.0 1.0 0.1 323.5 36.7 0.00 0.0000000 80.5
2021-06-11 20:35:00 65.7 28.5 32.1 65.7 65.7 0.0 1.0 0.0 324.9 8.9 0.00 0.0000000 80.3
2021-06-11 20:40:00 64.9 28.2 31.2 64.9 64.9 0.0 0.0 0.0 300.0 0.0 0.00 0.0000000 80.1
2021-06-11 20:45:00 64.3 32.1 33.8 64.3 64.3 0.0 1.3 0.4 285.8 295.9 0.00 0.0000000 79.8
2021-06-11 20:50:00 63.4 33.6 34.2 63.4 63.4 0.0 0.8 0.1 271.7 289.5 0.00 0.0000000 79.6
2021-06-11 20:55:00 61.4 40.6 37.3 61.4 61.4 0.0 1.2 0.1 253.3 226.8 0.00 0.0000000 79.4
2021-06-11 21:00:00 59.1 44.6 37.5 59.1 59.1 1.3 1.3 0.4 264.0 252.5 0.00 0.0000000 79.2
2021-06-11 21:05:00 57.4 47.3 37.5 57.4 57.4 0.0 1.5 0.5 246.6 252.1 0.00 0.0000000 78.9
2021-06-11 21:10:00 56.4 48.0 37.0 56.4 56.4 0.0 0.0 0.0 235.1 0.0 0.00 0.0000000 78.7
2021-06-11 21:15:00 54.9 50.7 36.9 54.9 54.9 0.0 2.1 0.5 274.0 224.8 0.00 0.0000000 78.5
2021-06-11 21:20:00 54.4 47.7 34.9 54.4 54.4 1.2 2.4 0.8 293.1 246.8 0.00 0.0000000 78.3
2021-06-11 21:25:00 55.4 43.5 33.5 55.4 55.4 1.9 2.8 2.2 260.7 289.6 0.00 0.0000000 78.1
2021-06-11 21:30:00 55.8 45.5 35.0 55.8 55.8 2.1 2.1 1.8 297.4 289.1 0.00 0.0000000 77.9
2021-06-11 21:35:00 56.0 43.4 34.1 56.0 56.0 2.1 2.1 1.1 297.8 284.8 0.00 0.0000000 77.7
2021-06-11 21:40:00 56.8 42.7 34.4 56.8 56.8 1.3 2.8 1.9 269.0 301.9 0.00 0.0000000 77.5
2021-06-11 21:45:00 55.8 48.9 36.9 55.8 55.8 1.9 2.6 1.3 255.8 248.2 0.00 0.0000000 77.3
2021-06-11 21:50:00 53.9 51.3 36.3 53.9 53.9 2.2 2.8 1.9 250.6 245.5 0.00 0.0000000 77.1
2021-06-11 21:55:00 53.5 48.1 34.4 53.5 53.5 3.8 4.9 3.7 250.0 253.6 0.00 0.0000000 76.9
2021-06-11 22:00:00 53.2 50.1 35.1 53.2 53.2 0.0 3.8 1.5 251.7 257.1 0.00 0.0000000 76.7
2021-06-11 22:05:00 52.2 52.9 35.5 52.2 52.2 1.7 2.4 1.2 246.7 242.0 0.00 0.0000000 76.5
2021-06-11 22:10:00 51.5 53.2 35.1 51.5 51.5 1.3 2.1 1.2 290.4 250.3 0.00 0.0000000 76.3
2021-06-11 22:15:00 51.1 55.4 35.7 51.1 51.1 2.4 3.1 1.6 216.5 238.4 0.00 0.0000000 76.1
2021-06-11 22:20:00 50.6 54.4 34.7 50.6 50.6 3.1 3.7 2.7 261.2 231.4 0.00 0.0000000 76.0
2021-06-11 22:25:00 51.7 51.1 34.2 51.7 51.7 3.0 5.8 3.9 256.1 251.5 0.00 0.0000000 75.8
2021-06-11 22:30:00 53.1 46.6 33.1 53.1 53.1 3.3 3.7 3.2 250.5 263.5 0.00 0.0000000 75.6
2021-06-11 22:35:00 52.9 50.1 34.8 52.9 52.9 2.6 4.9 3.9 225.0 240.0 0.00 0.0000000 75.4
2021-06-11 22:40:00 51.8 50.2 33.9 51.8 51.8 3.1 5.1 3.6 196.9 237.7 0.00 0.0000000 75.2
2021-06-11 22:45:00 51.6 49.7 33.4 51.6 51.6 3.8 5.3 3.9 235.7 240.2 0.00 0.0000000 75.1
2021-06-11 22:50:00 51.7 49.2 33.2 51.7 51.7 2.4 4.4 3.5 228.0 247.1 0.00 0.0000000 74.9
2021-06-11 22:55:00 51.3 51.2 33.9 51.3 51.3 3.0 4.4 3.5 230.7 227.3 0.00 0.0000000 74.7
2021-06-11 23:00:00 50.9 49.4 32.6 50.9 50.9 4.6 5.8 3.7 271.0 248.2 0.00 0.0000000 74.6
2021-06-11 23:05:00 51.4 48.5 32.6 51.4 51.4 2.6 5.5 3.8 246.4 257.0 0.00 0.0000000 74.4
2021-06-11 23:10:00 51.2 49.5 33.0 51.2 51.2 3.0 4.6 2.5 220.4 242.3 0.00 0.0000000 74.2
2021-06-11 23:15:00 50.8 49.2 32.4 50.8 50.8 4.7 4.9 3.6 227.0 240.3 0.00 0.0000000 74.0
2021-06-11 23:20:00 50.3 49.3 32.0 50.3 50.3 4.6 5.6 4.0 249.1 244.9 0.00 0.0000000 73.9
2021-06-11 23:25:00 50.8 47.7 31.6 50.8 50.8 2.4 4.9 2.6 179.7 235.3 0.00 0.0000000 73.8
2021-06-11 23:30:00 51.9 44.1 30.8 51.9 51.9 3.7 4.9 2.5 258.4 257.2 0.00 0.0000000 73.6
2021-06-11 23:35:00 52.7 43.3 31.0 52.7 52.7 3.7 4.6 3.3 284.9 262.0 0.00 0.0000000 73.5
2021-06-11 23:40:00 51.2 48.5 32.5 51.2 51.2 3.1 4.9 3.3 226.2 224.3 0.00 0.0000000 73.3
2021-06-11 23:45:00 50.5 48.6 31.8 50.5 50.5 3.1 5.6 3.1 268.6 258.9 0.00 0.0000000 73.1
2021-06-11 23:50:00 50.5 48.5 31.7 50.5 50.5 4.0 5.5 4.0 265.0 258.9 0.00 0.0000000 73.0
2021-06-11 23:55:00 51.4 44.2 30.3 51.4 51.4 6.3 7.1 4.8 296.0 255.9 0.00 0.0000000 72.9
2021-06-12 00:00:00 50.5 49.5 32.3 50.5 50.5 3.8 6.3 3.9 259.2 250.1 0.00 0.0000000 72.7

Data is courtesy of the NM Climate Center. DO NOT USE IN LEGAL PROCEEDINGS.